sensor_id;sensor_type;location;lat;lon;timestamp;pressure;altitude;pressure_sealevel;temperature;humidity
43503;BME280;29098;48.184;16.298;2023-03-22T00:01:28;99248.69;;;10.38;70.65
43503;BME280;29098;48.184;16.298;2023-03-22T00:03:55;99220.00;;;10.43;70.52
43503;BME280;29098;48.184;16.298;2023-03-22T00:06:22;99246.63;;;10.63;70.56
43503;BME280;29098;48.184;16.298;2023-03-22T00:08:49;99266.34;;;10.67;70.19
43503;BME280;29098;48.184;16.298;2023-03-22T00:11:16;99243.88;;;10.72;70.07
43503;BME280;29098;48.184;16.298;2023-03-22T00:13:42;99217.38;;;10.43;70.36
43503;BME280;29098;48.184;16.298;2023-03-22T00:16:09;99216.28;;;10.37;70.38
43503;BME280;29098;48.184;16.298;2023-03-22T00:18:35;99220.84;;;10.44;70.50
43503;BME280;29098;48.184;16.298;2023-03-22T00:21:01;99213.91;;;10.43;70.80
43503;BME280;29098;48.184;16.298;2023-03-22T00:23:27;99211.16;;;10.51;70.48
43503;BME280;29098;48.184;16.298;2023-03-22T00:25:53;99185.28;;;10.39;70.03
43503;BME280;29098;48.184;16.298;2023-03-22T00:28:19;99242.91;;;10.58;70.48
43503;BME280;29098;48.184;16.298;2023-03-22T00:30:56;99211.44;;;10.41;70.59
43503;BME280;29098;48.184;16.298;2023-03-22T00:33:26;99236.81;;;10.57;70.52
43503;BME280;29098;48.184;16.298;2023-03-22T00:36:06;99222.09;;;10.48;70.52
43503;BME280;29098;48.184;16.298;2023-03-22T00:38:41;99248.16;;;10.58;70.90
43503;BME280;29098;48.184;16.298;2023-03-22T00:41:13;99223.16;;;10.38;71.18
43503;BME280;29098;48.184;16.298;2023-03-22T00:43:40;99225.28;;;10.43;71.11
43503;BME280;29098;48.184;16.298;2023-03-22T00:46:07;99231.38;;;10.44;71.32
43503;BME280;29098;48.184;16.298;2023-03-22T00:48:33;99231.38;;;10.44;71.52
43503;BME280;29098;48.184;16.298;2023-03-22T00:50:58;99191.66;;;10.30;71.36
43503;BME280;29098;48.184;16.298;2023-03-22T00:53:27;99193.56;;;10.36;71.19
43503;BME280;29098;48.184;16.298;2023-03-22T00:55:57;99217.44;;;10.50;71.42
43503;BME280;29098;48.184;16.298;2023-03-22T00:58:24;99188.91;;;10.38;71.00
43503;BME280;29098;48.184;16.298;2023-03-22T01:00:50;99207.66;;;10.44;71.40
43503;BME280;29098;48.184;16.298;2023-03-22T01:03:16;99214.25;;;10.54;70.66
43503;BME280;29098;48.184;16.298;2023-03-22T01:05:43;99161.94;;;10.36;70.53
43503;BME280;29098;48.184;16.298;2023-03-22T01:08:09;99178.00;;;10.41;70.69
43503;BME280;29098;48.184;16.298;2023-03-22T01:10:38;99210.53;;;10.64;70.56
43503;BME280;29098;48.184;16.298;2023-03-22T01:13:05;99189.28;;;10.50;70.72
43503;BME280;29098;48.184;16.298;2023-03-22T01:15:31;99179.28;;;10.31;71.24
43503;BME280;29098;48.184;16.298;2023-03-22T01:17:57;99202.28;;;10.52;71.51
43503;BME280;29098;48.184;16.298;2023-03-22T01:20:23;99185.59;;;10.45;71.17
43503;BME280;29098;48.184;16.298;2023-03-22T01:22:49;99163.50;;;10.16;71.27
43503;BME280;29098;48.184;16.298;2023-03-22T01:25:15;99190.03;;;10.44;71.19
43503;BME280;29098;48.184;16.298;2023-03-22T01:27:41;99201.63;;;10.65;71.35
43503;BME280;29098;48.184;16.298;2023-03-22T01:30:07;99202.75;;;10.55;70.94
43503;BME280;29098;48.184;16.298;2023-03-22T01:32:34;99200.63;;;10.51;71.37
43503;BME280;29098;48.184;16.298;2023-03-22T01:35:00;99206.44;;;10.61;71.15
43503;BME280;29098;48.184;16.298;2023-03-22T01:37:26;99157.91;;;10.40;71.64
43503;BME280;29098;48.184;16.298;2023-03-22T01:39:54;99185.03;;;10.49;71.56
43503;BME280;29098;48.184;16.298;2023-03-22T01:42:21;99195.91;;;10.61;71.67
43503;BME280;29098;48.184;16.298;2023-03-22T01:47:39;99196.19;;;10.51;72.00
43503;BME280;29098;48.184;16.298;2023-03-22T01:50:06;99196.44;;;10.41;72.25
43503;BME280;29098;48.184;16.298;2023-03-22T01:52:33;99187.91;;;10.39;72.14
43503;BME280;29098;48.184;16.298;2023-03-22T01:55:00;99181.31;;;10.44;72.38
43503;BME280;29098;48.184;16.298;2023-03-22T01:57:25;99153.22;;;10.36;72.05
43503;BME280;29098;48.184;16.298;2023-03-22T01:59:51;99191.09;;;10.50;72.05
43503;BME280;29098;48.184;16.298;2023-03-22T02:02:18;99188.84;;;10.47;72.41
43503;BME280;29098;48.184;16.298;2023-03-22T02:04:46;99179.81;;;10.41;72.04
43503;BME280;29098;48.184;16.298;2023-03-22T02:07:16;99162.91;;;10.35;72.72
43503;BME280;29098;48.184;16.298;2023-03-22T02:09:54;99182.28;;;10.43;72.63
43503;BME280;29098;48.184;16.298;2023-03-22T02:18:23;99162.69;;;10.30;72.96
43503;BME280;29098;48.184;16.298;2023-03-22T02:20:39;99178.66;;;10.28;73.17
43503;BME280;29098;48.184;16.298;2023-03-22T02:26:22;99149.34;;;10.02;73.31
43503;BME280;29098;48.184;16.298;2023-03-22T02:29:18;99169.84;;;10.21;73.51
43503;BME280;29098;48.184;16.298;2023-03-22T02:32:27;99155.31;;;10.25;73.05
43503;BME280;29098;48.184;16.298;2023-03-22T02:45:54;99159.88;;;10.17;74.11
43503;BME280;29098;48.184;16.298;2023-03-22T02:48:29;99105.84;;;10.06;74.01
43503;BME280;29098;48.184;16.298;2023-03-22T02:51:04;99162.38;;;10.40;73.39
43503;BME280;29098;48.184;16.298;2023-03-22T02:53:45;99177.03;;;10.43;73.54
43503;BME280;29098;48.184;16.298;2023-03-22T02:58:46;99154.28;;;10.41;72.87
43503;BME280;29098;48.184;16.298;2023-03-22T03:01:37;99111.91;;;10.21;72.96
43503;BME280;29098;48.184;16.298;2023-03-22T03:04:07;99149.56;;;10.52;72.50
43503;BME280;29098;48.184;16.298;2023-03-22T03:06:38;99144.69;;;10.34;72.99
43503;BME280;29098;48.184;16.298;2023-03-22T03:09:06;99174.72;;;10.54;72.98
43503;BME280;29098;48.184;16.298;2023-03-22T03:11:32;99173.03;;;10.47;73.31
43503;BME280;29098;48.184;16.298;2023-03-22T03:13:58;99159.31;;;10.21;73.76
43503;BME280;29098;48.184;16.298;2023-03-22T03:16:26;99171.31;;;10.24;74.30
43503;BME280;29098;48.184;16.298;2023-03-22T03:19:16;99144.69;;;10.19;74.00
43503;BME280;29098;48.184;16.298;2023-03-22T03:22:03;99164.41;;;10.23;73.98
43503;BME280;29098;48.184;16.298;2023-03-22T03:27:17;99180.13;;;10.31;74.07
43503;BME280;29098;48.184;16.298;2023-03-22T03:33:01;99141.69;;;10.22;74.75
43503;BME280;29098;48.184;16.298;2023-03-22T03:35:53;99149.50;;;10.15;74.54
43503;BME280;29098;48.184;16.298;2023-03-22T03:38:20;99201.25;;;10.38;74.53
43503;BME280;29098;48.184;16.298;2023-03-22T03:40:51;99194.63;;;10.27;75.31
43503;BME280;29098;48.184;16.298;2023-03-22T03:43:19;99156.41;;;10.16;75.12
43503;BME280;29098;48.184;16.298;2023-03-22T03:45:46;99140.53;;;10.09;75.21
43503;BME280;29098;48.184;16.298;2023-03-22T03:48:18;99185.38;;;10.31;75.08
43503;BME280;29098;48.184;16.298;2023-03-22T03:50:46;99168.16;;;10.13;75.23
43503;BME280;29098;48.184;16.298;2023-03-22T03:53:14;99166.59;;;10.19;75.69
43503;BME280;29098;48.184;16.298;2023-03-22T03:55:40;99186.84;;;10.19;75.52
43503;BME280;29098;48.184;16.298;2023-03-22T03:58:05;99166.13;;;10.16;75.71
43503;BME280;29098;48.184;16.298;2023-03-22T04:00:33;99170.88;;;10.05;75.98
43503;BME280;29098;48.184;16.298;2023-03-22T04:02:58;99156.25;;;10.03;76.00
43503;BME280;29098;48.184;16.298;2023-03-22T04:05:24;99163.94;;;10.04;76.00
43503;BME280;29098;48.184;16.298;2023-03-22T04:07:49;99184.31;;;10.10;76.15
43503;BME280;29098;48.184;16.298;2023-03-22T04:10:15;99151.34;;;9.99;76.01
43503;BME280;29098;48.184;16.298;2023-03-22T04:12:40;99178.94;;;10.19;76.38
43503;BME280;29098;48.184;16.298;2023-03-22T04:15:06;99175.94;;;10.22;76.00
43503;BME280;29098;48.184;16.298;2023-03-22T04:17:32;99188.78;;;10.10;76.04
43503;BME280;29098;48.184;16.298;2023-03-22T04:19:58;99187.22;;;10.16;76.30
43503;BME280;29098;48.184;16.298;2023-03-22T04:22:23;99168.59;;;10.02;76.71
43503;BME280;29098;48.184;16.298;2023-03-22T04:24:49;99190.84;;;10.14;76.69
43503;BME280;29098;48.184;16.298;2023-03-22T04:27:16;99156.72;;;10.06;76.56
43503;BME280;29098;48.184;16.298;2023-03-22T04:29:42;99192.56;;;10.07;77.08
43503;BME280;29098;48.184;16.298;2023-03-22T04:32:21;99194.66;;;9.97;77.40
43503;BME280;29098;48.184;16.298;2023-03-22T04:34:50;99174.41;;;9.82;77.33
43503;BME280;29098;48.184;16.298;2023-03-22T04:37:17;99201.03;;;10.03;77.50
43503;BME280;29098;48.184;16.298;2023-03-22T04:39:44;99193.47;;;9.99;77.41
43503;BME280;29098;48.184;16.298;2023-03-22T04:42:10;99185.59;;;9.84;78.11
43503;BME280;29098;48.184;16.298;2023-03-22T04:44:35;99183.56;;;9.86;78.19
43503;BME280;29098;48.184;16.298;2023-03-22T04:47:01;99200.75;;;9.82;78.68
43503;BME280;29098;48.184;16.298;2023-03-22T04:49:27;99185.47;;;9.78;78.73
43503;BME280;29098;48.184;16.298;2023-03-22T04:51:53;99194.84;;;9.95;77.96
43503;BME280;29098;48.184;16.298;2023-03-22T04:54:19;99179.94;;;9.87;78.61
43503;BME280;29098;48.184;16.298;2023-03-22T04:56:45;99163.81;;;9.91;78.64
43503;BME280;29098;48.184;16.298;2023-03-22T04:59:11;99174.75;;;9.79;78.98
43503;BME280;29098;48.184;16.298;2023-03-22T05:01:37;99156.50;;;9.63;79.26
43503;BME280;29098;48.184;16.298;2023-03-22T05:04:04;99180.75;;;9.73;79.96
43503;BME280;29098;48.184;16.298;2023-03-22T05:06:30;99162.59;;;9.63;79.49
43503;BME280;29098;48.184;16.298;2023-03-22T05:08:59;99195.75;;;9.87;79.31
43503;BME280;29098;48.184;16.298;2023-03-22T05:11:26;99198.13;;;9.82;79.46
43503;BME280;29098;48.184;16.298;2023-03-22T05:13:55;99145.59;;;9.51;80.20
43503;BME280;29098;48.184;16.298;2023-03-22T05:16:22;99192.91;;;9.74;79.96
43503;BME280;29098;48.184;16.298;2023-03-22T05:18:48;99197.13;;;9.83;79.85
43503;BME280;29098;48.184;16.298;2023-03-22T05:21:20;99182.00;;;9.62;80.12
43503;BME280;29098;48.184;16.298;2023-03-22T05:23:53;99174.84;;;9.71;80.33
43503;BME280;29098;48.184;16.298;2023-03-22T05:26:19;99170.03;;;9.75;80.26
43503;BME280;29098;48.184;16.298;2023-03-22T05:28:45;99211.00;;;9.77;80.71
43503;BME280;29098;48.184;16.298;2023-03-22T05:31:11;99173.50;;;9.75;80.38
43503;BME280;29098;48.184;16.298;2023-03-22T05:33:39;99166.78;;;9.72;80.14
43503;BME280;29098;48.184;16.298;2023-03-22T05:36:06;99208.72;;;9.89;80.97
43503;BME280;29098;48.184;16.298;2023-03-22T05:38:32;99214.47;;;9.93;80.77
43503;BME280;29098;48.184;16.298;2023-03-22T05:40:58;99180.66;;;9.81;80.50
43503;BME280;29098;48.184;16.298;2023-03-22T05:43:23;99217.28;;;10.06;79.88
43503;BME280;29098;48.184;16.298;2023-03-22T05:45:49;99185.47;;;10.08;79.76
43503;BME280;29098;48.184;16.298;2023-03-22T05:48:15;99220.00;;;10.13;80.66
43503;BME280;29098;48.184;16.298;2023-03-22T05:50:41;99210.44;;;9.97;80.99
43503;BME280;29098;48.184;16.298;2023-03-22T05:53:07;99217.53;;;10.11;80.63
43503;BME280;29098;48.184;16.298;2023-03-22T05:55:32;99200.38;;;10.16;80.38
43503;BME280;29098;48.184;16.298;2023-03-22T05:57:58;99196.84;;;10.08;80.51
43503;BME280;29098;48.184;16.298;2023-03-22T06:00:25;99234.06;;;10.35;80.41
43503;BME280;29098;48.184;16.298;2023-03-22T06:02:51;99231.63;;;10.34;80.56
43503;BME280;29098;48.184;16.298;2023-03-22T06:05:18;99196.19;;;10.21;80.93
43503;BME280;29098;48.184;16.298;2023-03-22T06:07:45;99238.91;;;10.47;81.14
43503;BME280;29098;48.184;16.298;2023-03-22T06:10:11;99191.00;;;10.28;80.62
43503;BME280;29098;48.184;16.298;2023-03-22T06:12:37;99213.91;;;10.43;80.76
43503;BME280;29098;48.184;16.298;2023-03-22T06:15:04;99237.97;;;10.54;81.00
43503;BME280;29098;48.184;16.298;2023-03-22T06:17:30;99243.59;;;10.66;80.65
43503;BME280;29098;48.184;16.298;2023-03-22T06:19:55;99227.09;;;10.58;80.75
43503;BME280;29098;48.184;16.298;2023-03-22T06:22:21;99227.94;;;10.80;80.16
43503;BME280;29098;48.184;16.298;2023-03-22T06:24:47;99248.56;;;10.91;80.79
43503;BME280;29098;48.184;16.298;2023-03-22T06:27:13;99218.25;;;11.02;79.90
43503;BME280;29098;48.184;16.298;2023-03-22T06:29:39;99246.19;;;11.18;79.18
43503;BME280;29098;48.184;16.298;2023-03-22T06:32:05;99241.97;;;11.24;79.06
43503;BME280;29098;48.184;16.298;2023-03-22T06:34:31;99247.06;;;11.26;79.14
43503;BME280;29098;48.184;16.298;2023-03-22T06:36:56;99256.88;;;11.32;80.48
43503;BME280;29098;48.184;16.298;2023-03-22T06:39:22;99229.00;;;11.22;80.69
43503;BME280;29098;48.184;16.298;2023-03-22T06:41:48;99251.50;;;11.47;78.98
43503;BME280;29098;48.184;16.298;2023-03-22T06:44:14;99257.09;;;11.59;77.80
43503;BME280;29098;48.184;16.298;2023-03-22T06:46:40;99258.97;;;11.65;78.83
43503;BME280;29098;48.184;16.298;2023-03-22T06:49:05;99278.94;;;11.74;77.93
43503;BME280;29098;48.184;16.298;2023-03-22T06:51:32;99218.13;;;11.61;77.65
43503;BME280;29098;48.184;16.298;2023-03-22T06:53:57;99224.91;;;11.70;77.54
43503;BME280;29098;48.184;16.298;2023-03-22T06:56:23;99237.81;;;11.87;79.57
43503;BME280;29098;48.184;16.298;2023-03-22T06:58:48;99228.50;;;11.91;78.26
43503;BME280;29098;48.184;16.298;2023-03-22T07:01:17;99249.88;;;11.96;77.96
43503;BME280;29098;48.184;16.298;2023-03-22T07:03:42;99259.78;;;12.16;73.79
43503;BME280;29098;48.184;16.298;2023-03-22T07:06:08;99263.91;;;12.25;72.96
43503;BME280;29098;48.184;16.298;2023-03-22T07:08:34;99253.56;;;12.30;73.12
43503;BME280;29098;48.184;16.298;2023-03-22T07:11:02;99249.13;;;12.38;73.17
43503;BME280;29098;48.184;16.298;2023-03-22T07:13:27;99247.88;;;12.33;72.70
43503;BME280;29098;48.184;16.298;2023-03-22T07:15:57;99241.19;;;12.38;72.49
43503;BME280;29098;48.184;16.298;2023-03-22T07:18:24;99253.06;;;12.55;71.17
43503;BME280;29098;48.184;16.298;2023-03-22T07:20:50;99237.63;;;12.52;71.72
43503;BME280;29098;48.184;16.298;2023-03-22T07:23:16;99238.88;;;12.70;69.41
43503;BME280;29098;48.184;16.298;2023-03-22T07:25:45;99272.28;;;12.78;69.28
43503;BME280;29098;48.184;16.298;2023-03-22T07:28:11;99254.78;;;12.77;68.97
43503;BME280;29098;48.184;16.298;2023-03-22T07:30:38;99221.81;;;12.72;68.74
43503;BME280;29098;48.184;16.298;2023-03-22T07:33:05;99270.69;;;12.90;68.30
43503;BME280;29098;48.184;16.298;2023-03-22T07:35:31;99239.56;;;12.92;67.43
43503;BME280;29098;48.184;16.298;2023-03-22T07:37:56;99244.25;;;12.97;66.90
43503;BME280;29098;48.184;16.298;2023-03-22T07:40:22;99230.44;;;13.08;66.70
43503;BME280;29098;48.184;16.298;2023-03-22T07:42:48;99246.34;;;13.22;66.54
43503;BME280;29098;48.184;16.298;2023-03-22T07:45:15;99250.47;;;13.51;64.97
43503;BME280;29098;48.184;16.298;2023-03-22T07:47:41;99249.88;;;13.83;62.87
43503;BME280;29098;48.184;16.298;2023-03-22T07:50:06;99250.03;;;13.88;63.25
43503;BME280;29098;48.184;16.298;2023-03-22T07:52:33;99245.16;;;13.92;63.70
43503;BME280;29098;48.184;16.298;2023-03-22T07:54:59;99230.06;;;13.92;62.81
43503;BME280;29098;48.184;16.298;2023-03-22T07:57:24;99247.16;;;14.10;62.15
43503;BME280;29098;48.184;16.298;2023-03-22T07:59:50;99236.34;;;14.18;60.13
43503;BME280;29098;48.184;16.298;2023-03-22T08:02:15;99249.75;;;14.37;59.93
43503;BME280;29098;48.184;16.298;2023-03-22T08:04:41;99247.09;;;14.37;60.06
43503;BME280;29098;48.184;16.298;2023-03-22T08:07:06;99229.53;;;14.36;60.10
43503;BME280;29098;48.184;16.298;2023-03-22T08:09:35;99233.22;;;14.42;59.92
43503;BME280;29098;48.184;16.298;2023-03-22T08:12:00;99233.16;;;14.55;59.31
43503;BME280;29098;48.184;16.298;2023-03-22T08:14:26;99232.69;;;14.72;58.54
43503;BME280;29098;48.184;16.298;2023-03-22T08:16:51;99210.34;;;14.93;57.33
43503;BME280;29098;48.184;16.298;2023-03-22T08:19:17;99217.84;;;15.03;57.88
43503;BME280;29098;48.184;16.298;2023-03-22T08:21:42;99253.91;;;15.17;57.03
43503;BME280;29098;48.184;16.298;2023-03-22T08:24:08;99249.19;;;15.19;56.22
43503;BME280;29098;48.184;16.298;2023-03-22T08:26:33;99257.28;;;15.82;54.44
43503;BME280;29098;48.184;16.298;2023-03-22T08:28:59;99244.66;;;15.52;55.72
43503;BME280;29098;48.184;16.298;2023-03-22T08:31:24;99244.19;;;15.37;55.44
43503;BME280;29098;48.184;16.298;2023-03-22T08:33:50;99240.44;;;15.44;55.05
43503;BME280;29098;48.184;16.298;2023-03-22T08:36:18;99229.19;;;15.17;55.48
43503;BME280;29098;48.184;16.298;2023-03-22T08:38:44;99215.78;;;15.05;56.21
43503;BME280;29098;48.184;16.298;2023-03-22T08:41:13;99253.66;;;15.51;55.43
43503;BME280;29098;48.184;16.298;2023-03-22T08:43:40;99238.72;;;15.25;56.00
43503;BME280;29098;48.184;16.298;2023-03-22T08:46:06;99239.97;;;15.22;56.00
43503;BME280;29098;48.184;16.298;2023-03-22T08:48:32;99243.03;;;15.26;55.59
43503;BME280;29098;48.184;16.298;2023-03-22T08:50:59;99242.34;;;15.05;56.38
43503;BME280;29098;48.184;16.298;2023-03-22T08:53:26;99238.47;;;15.33;55.65
43503;BME280;29098;48.184;16.298;2023-03-22T08:55:51;99227.03;;;15.32;55.36
43503;BME280;29098;48.184;16.298;2023-03-22T08:58:17;99230.13;;;15.55;54.69
43503;BME280;29098;48.184;16.298;2023-03-22T09:00:44;99236.47;;;15.79;53.22
43503;BME280;29098;48.184;16.298;2023-03-22T09:03:10;99231.25;;;15.66;53.52
43503;BME280;29098;48.184;16.298;2023-03-22T09:05:36;99250.88;;;15.65;54.15
43503;BME280;29098;48.184;16.298;2023-03-22T09:08:01;99217.69;;;15.74;53.07
43503;BME280;29098;48.184;16.298;2023-03-22T09:10:28;99221.06;;;15.63;53.29
43503;BME280;29098;48.184;16.298;2023-03-22T09:12:54;99225.06;;;15.97;52.78
43503;BME280;29098;48.184;16.298;2023-03-22T09:15:20;99244.97;;;15.88;51.79
43503;BME280;29098;48.184;16.298;2023-03-22T09:17:45;99228.38;;;15.67;52.91
43503;BME280;29098;48.184;16.298;2023-03-22T09:20:11;99228.84;;;15.64;54.00
43503;BME280;29098;48.184;16.298;2023-03-22T09:22:37;99230.22;;;15.67;53.65
43503;BME280;29098;48.184;16.298;2023-03-22T09:25:03;99224.28;;;15.71;52.54
43503;BME280;29098;48.184;16.298;2023-03-22T09:27:28;99222.78;;;16.20;51.15
43503;BME280;29098;48.184;16.298;2023-03-22T09:29:54;99210.53;;;16.00;51.60
43503;BME280;29098;48.184;16.298;2023-03-22T09:32:20;99219.16;;;16.33;51.10
43503;BME280;29098;48.184;16.298;2023-03-22T09:34:46;99199.06;;;16.37;50.76
43503;BME280;29098;48.184;16.298;2023-03-22T09:37:11;99217.91;;;16.35;50.86
43503;BME280;29098;48.184;16.298;2023-03-22T09:39:40;99224.19;;;16.41;51.66
43503;BME280;29098;48.184;16.298;2023-03-22T09:42:17;99199.28;;;16.54;50.46
43503;BME280;29098;48.184;16.298;2023-03-22T09:44:47;99212.69;;;16.59;50.30
43503;BME280;29098;48.184;16.298;2023-03-22T09:47:16;99208.03;;;16.54;51.32
43503;BME280;29098;48.184;16.298;2023-03-22T09:49:45;99187.31;;;16.45;50.31
43503;BME280;29098;48.184;16.298;2023-03-22T09:52:14;99201.88;;;16.73;49.38
43503;BME280;29098;48.184;16.298;2023-03-22T09:54:43;99207.25;;;17.15;47.98
43503;BME280;29098;48.184;16.298;2023-03-22T09:59:57;99206.56;;;16.89;47.88
43503;BME280;29098;48.184;16.298;2023-03-22T10:05:34;99179.44;;;17.11;47.56
43503;BME280;29098;48.184;16.298;2023-03-22T10:10:43;99170.53;;;17.17;47.21
43503;BME280;29098;48.184;16.298;2023-03-22T10:13:16;99182.81;;;17.18;46.62
43503;BME280;29098;48.184;16.298;2023-03-22T10:15:56;99169.72;;;17.17;47.56
43503;BME280;29098;48.184;16.298;2023-03-22T10:21:01;99140.66;;;17.15;47.09
43503;BME280;29098;48.184;16.298;2023-03-22T10:23:32;99147.75;;;17.45;47.00
43503;BME280;29098;48.184;16.298;2023-03-22T10:26:01;99176.78;;;17.83;45.06
43503;BME280;29098;48.184;16.298;2023-03-22T10:28:38;99186.91;;;17.80;44.76
43503;BME280;29098;48.184;16.298;2023-03-22T10:31:04;99178.31;;;17.78;43.86
43503;BME280;29098;48.184;16.298;2023-03-22T10:33:36;99170.66;;;17.82;44.55
43503;BME280;29098;48.184;16.298;2023-03-22T10:36:05;99169.59;;;17.95;44.27
43503;BME280;29098;48.184;16.298;2023-03-22T10:38:33;99150.56;;;18.03;43.60
43503;BME280;29098;48.184;16.298;2023-03-22T10:41:04;99147.78;;;17.98;44.13
43503;BME280;29098;48.184;16.298;2023-03-22T10:43:34;99148.16;;;18.14;42.84
43503;BME280;29098;48.184;16.298;2023-03-22T10:46:05;99127.38;;;18.16;43.47
43503;BME280;29098;48.184;16.298;2023-03-22T10:48:44;99134.06;;;18.30;43.11
43503;BME280;29098;48.184;16.298;2023-03-22T10:51:20;99131.22;;;18.66;42.31
43503;BME280;29098;48.184;16.298;2023-03-22T10:53:48;99126.19;;;18.53;41.74
43503;BME280;29098;48.184;16.298;2023-03-22T10:56:17;99137.63;;;18.82;42.06
43503;BME280;29098;48.184;16.298;2023-03-22T10:58:44;99154.41;;;18.95;40.92
43503;BME280;29098;48.184;16.298;2023-03-22T11:01:13;99129.59;;;18.82;40.30
43503;BME280;29098;48.184;16.298;2023-03-22T11:03:44;99165.91;;;19.12;40.22
43503;BME280;29098;48.184;16.298;2023-03-22T11:06:16;99147.63;;;19.38;39.03
43503;BME280;29098;48.184;16.298;2023-03-22T11:08:43;99147.97;;;19.64;39.72
43503;BME280;29098;48.184;16.298;2023-03-22T11:11:35;99120.34;;;19.98;39.95
43503;BME280;29098;48.184;16.298;2023-03-22T11:14:14;99130.75;;;20.44;36.99
43503;BME280;29098;48.184;16.298;2023-03-22T11:16:46;99137.31;;;20.59;36.71
43503;BME280;29098;48.184;16.298;2023-03-22T11:19:26;99132.84;;;20.97;37.03
43503;BME280;29098;48.184;16.298;2023-03-22T11:21:56;99139.34;;;21.44;36.55
43503;BME280;29098;48.184;16.298;2023-03-22T11:24:27;99129.25;;;21.57;36.07
43503;BME280;29098;48.184;16.298;2023-03-22T11:27:19;99125.13;;;21.92;35.28
43503;BME280;29098;48.184;16.298;2023-03-22T11:29:49;99097.59;;;22.23;33.35
43503;BME280;29098;48.184;16.298;2023-03-22T11:32:26;99126.94;;;22.92;33.27
43503;BME280;29098;48.184;16.298;2023-03-22T11:37:47;99118.53;;;23.61;32.31
43503;BME280;29098;48.184;16.298;2023-03-22T11:42:41;99112.09;;;23.57;30.92
43503;BME280;29098;48.184;16.298;2023-03-22T11:45:09;99106.41;;;23.69;30.12
43503;BME280;29098;48.184;16.298;2023-03-22T11:47:38;99105.69;;;24.03;30.20
43503;BME280;29098;48.184;16.298;2023-03-22T11:50:06;99083.13;;;23.93;29.25
43503;BME280;29098;48.184;16.298;2023-03-22T11:52:34;99080.13;;;24.05;29.87
43503;BME280;29098;48.184;16.298;2023-03-22T11:55:00;99084.97;;;24.08;28.69
43503;BME280;29098;48.184;16.298;2023-03-22T11:57:30;99067.91;;;23.68;29.28
43503;BME280;29098;48.184;16.298;2023-03-22T12:00:06;99074.75;;;23.39;30.60
43503;BME280;29098;48.184;16.298;2023-03-22T12:05:32;99076.63;;;23.39;30.58
43503;BME280;29098;48.184;16.298;2023-03-22T12:10:41;99054.53;;;24.03;29.04
43503;BME280;29098;48.184;16.298;2023-03-22T12:13:27;99074.13;;;24.59;29.12
43503;BME280;29098;48.184;16.298;2023-03-22T12:16:02;99067.75;;;24.49;28.85
43503;BME280;29098;48.184;16.298;2023-03-22T12:18:50;99066.78;;;24.70;28.71
43503;BME280;29098;48.184;16.298;2023-03-22T12:21:23;99062.00;;;24.61;28.86
43503;BME280;29098;48.184;16.298;2023-03-22T12:23:49;99047.72;;;24.90;29.09
43503;BME280;29098;48.184;16.298;2023-03-22T12:26:19;99076.00;;;24.93;27.38
43503;BME280;29098;48.184;16.298;2023-03-22T12:28:58;99068.78;;;24.88;29.14
43503;BME280;29098;48.184;16.298;2023-03-22T12:31:31;99065.16;;;25.28;27.15
43503;BME280;29098;48.184;16.298;2023-03-22T12:34:00;99057.25;;;25.61;27.85
43503;BME280;29098;48.184;16.298;2023-03-22T12:36:40;99050.44;;;26.26;27.56
43503;BME280;29098;48.184;16.298;2023-03-22T12:39:11;99026.97;;;26.41;27.58
43503;BME280;29098;48.184;16.298;2023-03-22T12:41:40;99060.81;;;26.52;27.36
43503;BME280;29098;48.184;16.298;2023-03-22T12:44:30;99018.00;;;26.26;28.65
43503;BME280;29098;48.184;16.298;2023-03-22T12:49:43;99029.22;;;27.00;28.17
43503;BME280;29098;48.184;16.298;2023-03-22T12:52:19;99037.88;;;27.30;27.68
43503;BME280;29098;48.184;16.298;2023-03-22T12:54:48;99021.59;;;26.22;28.43
43503;BME280;29098;48.184;16.298;2023-03-22T12:57:15;99016.69;;;25.23;29.60
43503;BME280;29098;48.184;16.298;2023-03-22T12:59:52;99007.91;;;25.12;28.96
43503;BME280;29098;48.184;16.298;2023-03-22T13:02:26;99022.66;;;24.26;29.73
43503;BME280;29098;48.184;16.298;2023-03-22T13:04:58;99031.63;;;23.65;30.02
43503;BME280;29098;48.184;16.298;2023-03-22T13:09:55;98974.09;;;22.69;31.61
43503;BME280;29098;48.184;16.298;2023-03-22T13:25:05;98990.28;;;21.54;35.12
43503;BME280;29098;48.184;16.298;2023-03-22T13:30:04;98940.59;;;21.25;34.52
43503;BME280;29098;48.184;16.298;2023-03-22T13:32:35;98965.69;;;20.60;35.04
43503;BME280;29098;48.184;16.298;2023-03-22T13:35:02;98952.59;;;20.64;35.58
43503;BME280;29098;48.184;16.298;2023-03-22T13:37:47;98974.97;;;20.52;36.50
43503;BME280;29098;48.184;16.298;2023-03-22T13:40:38;98952.63;;;20.74;36.46
43503;BME280;29098;48.184;16.298;2023-03-22T13:43:19;98978.59;;;21.12;36.02
43503;BME280;29098;48.184;16.298;2023-03-22T14:04:55;98955.91;;;20.81;37.56
43503;BME280;29098;48.184;16.298;2023-03-22T14:07:39;98968.81;;;20.85;37.79
43503;BME280;29098;48.184;16.298;2023-03-22T14:10:12;98953.47;;;20.75;37.81
43503;BME280;29098;48.184;16.298;2023-03-22T14:15:15;98913.88;;;20.39;37.16
43503;BME280;29098;48.184;16.298;2023-03-22T14:17:54;98930.72;;;20.39;37.22
43503;BME280;29098;48.184;16.298;2023-03-22T14:20:24;98954.41;;;20.96;36.86
43503;BME280;29098;48.184;16.298;2023-03-22T14:22:54;98948.63;;;20.77;36.28
43503;BME280;29098;48.184;16.298;2023-03-22T14:25:25;98929.34;;;20.32;36.80
43503;BME280;29098;48.184;16.298;2023-03-22T14:27:54;98951.13;;;20.46;36.85
43503;BME280;29098;48.184;16.298;2023-03-22T14:30:42;98921.81;;;20.29;36.82
43503;BME280;29098;48.184;16.298;2023-03-22T14:33:22;98906.47;;;20.14;37.02
43503;BME280;29098;48.184;16.298;2023-03-22T14:35:55;98951.75;;;20.63;37.55